Dades meteomassalio
Diari Summary for Noviembre 28, 2017 Units:  Metric    English   Both
« Previous Day
Next Day »
Diari Semanal Mensual Anual Personalitzat
  Maxima: Minima: Mijana:
Temperatura: -17.8 °C -21.2 °C -17.5 °C
Rosada: -17.8 °C -22.1 °C -20.1 °C
Humitat: Humidity % 46 % 72 %
Velocitat del vent: 0 km/h 0 km/h 4.7 km/h
Racha vent: 0 km/h - -
Vent:- - NW
Pressio: 0 hPa 34371.3 hPa -
Pluja: 0 mm    
Historical Graphs
 
 
Tabular Data for Noviembre 28, 2017
Time Temperature Dew Point Pressure Wind Wind Speed Wind Gust Humidity Rainfall Rate (Hourly) solar Conditions
-17.8 °C -17.8 °C 0 hPa Calm     Humidity % 0 mm SolarRadiationWatts/m^2 W/m2 Conditions
00:02 -19.3 °C -20.9 °C 34797.9 hPa Calm     81 % 0 mm 0.0 W/m2 CLR
00:07 -19.3 °C -20.8 °C 34784.4 hPa Calm     82 % 0 mm 0.0 W/m2 CLR
00:12 -19.3 °C -20.8 °C 34784.4 hPa Calm     82 % 0 mm 0.0 W/m2 CLR
00:17 -19.3 °C -20.8 °C 34784.4 hPa Calm     82 % 0 mm 0.0 W/m2 CLR
00:22 -19.6 °C -21.1 °C 34784.4 hPa Calm     82 % 0 mm 0.0 W/m2 CLR
00:27 -19.6 °C -21.1 °C 34774.2 hPa Calm     82 % 0 mm 0.0 W/m2 CLR
00:32 -19.6 °C -21.1 °C 34774.2 hPa Calm     82 % 0 mm 0.0 W/m2 CLR
00:37 -19.3 °C -20.7 °C 34774.2 hPa Calm     83 % 0 mm 0.0 W/m2 CLR
00:42 -19.3 °C -20.6 °C 34774.2 hPa Calm     84 % 0 mm 0.0 W/m2 CLR
00:47 -19.3 °C -20.7 °C 34774.2 hPa Calm     83 % 0 mm 0.0 W/m2 CLR
00:52 -19.3 °C -20.7 °C 34774.2 hPa Calm     83 % 0 mm 0.0 W/m2 CLR
00:57 -19.3 °C -20.7 °C 34774.2 hPa Calm     83 % 0 mm 0.0 W/m2 CLR
01:02 -19.6 °C -20.9 °C 34774.2 hPa Calm     84 % 0 mm 0.0 W/m2 CLR
01:07 -19.6 °C -20.9 °C 34774.2 hPa Calm     84 % 0 mm 0.0 W/m2 CLR
01:12 -19.6 °C -20.9 °C 34774.2 hPa Calm     84 % 0 mm 0.0 W/m2 CLR
01:17 -19.6 °C -20.9 °C 34774.2 hPa Calm     84 % 0 mm 0.0 W/m2 CLR
01:22 -19.6 °C -20.9 °C 34774.2 hPa Calm     84 % 0 mm 0.0 W/m2 CLR
01:27 -19.6 °C -20.9 °C 34760.7 hPa Calm     84 % 0 mm 0.0 W/m2 CLR
01:32 -19.6 °C -20.9 °C 34760.7 hPa Calm     84 % 0 mm 0.0 W/m2 CLR
01:37 -19.6 °C -20.9 °C 34760.7 hPa Calm     84 % 0 mm 0.0 W/m2 CLR
01:42 -19.6 °C -20.9 °C 34760.7 hPa Calm     84 % 0 mm 0.0 W/m2 CLR
01:47 -19.6 °C -20.9 °C 34760.7 hPa Calm     84 % 0 mm 0.0 W/m2 CLR
01:52 -19.6 °C -20.9 °C 34750.5 hPa Calm     84 % 0 mm 0.0 W/m2 CLR
01:57 -19.6 °C -21 °C 34750.5 hPa Calm     83 % 0 mm 0.0 W/m2 CLR
02:02 -19.6 °C -20.9 °C 34750.5 hPa Calm     84 % 0 mm 0.0 W/m2 CLR
02:07 -19.6 °C -20.9 °C 34750.5 hPa Calm     84 % 0 mm 0.0 W/m2 CLR
02:08 -19.6 °C -20.9 °C 34760.7 hPa Calm     84 % 0 mm 0.0 W/m2 CLR
02:13 -19.6 °C -21 °C 34750.5 hPa Calm     83 % 0 mm 0.0 W/m2 CLR
02:18 -19.6 °C -21 °C 34750.5 hPa Calm     83 % 0 mm 0.0 W/m2 CLR
02:23 -19.6 °C -21 °C 34750.5 hPa Calm     83 % 0 mm 0.0 W/m2 CLR
02:28 -19.6 °C -20.9 °C 34750.5 hPa Calm     84 % 0 mm 0.0 W/m2 CLR
02:33 -19.6 °C -20.9 °C 34750.5 hPa Calm     84 % 0 mm 0.0 W/m2 CLR
02:38 -19.6 °C -20.9 °C 34750.5 hPa Calm     84 % 0 mm 0.0 W/m2 CLR
02:43 -19.9 °C -21.2 °C 34750.5 hPa Calm     84 % 0 mm 0.0 W/m2 CLR
02:48 -19.9 °C -21.2 °C 34750.5 hPa Calm     84 % 0 mm 0.0 W/m2 CLR
02:53 -19.9 °C -21.3 °C 34740.4 hPa Calm     83 % 0 mm 0.0 W/m2 CLR
02:58 -19.9 °C -21.3 °C 34740.4 hPa Calm     83 % 0 mm 0.0 W/m2 CLR
03:03 -19.9 °C -21.2 °C 34740.4 hPa Calm     84 % 0 mm 0.0 W/m2 CLR
03:08 -20.2 °C -21.4 °C 34740.4 hPa Calm     85 % 0 mm 0.0 W/m2 CLR
03:13 -20.2 °C -21.4 °C 34740.4 hPa Calm     85 % 0 mm 0.0 W/m2 CLR
03:19 -20.2 °C -21.4 °C 34740.4 hPa Calm     85 % 0 mm 0.0 W/m2 CLR
03:24 -20.2 °C -21.3 °C 34726.8 hPa Calm     86 % 0 mm 0.0 W/m2 CLR
03:29 -20.2 °C -21.3 °C 34740.4 hPa Calm     86 % 0 mm 0.0 W/m2 CLR
03:34 -20.2 °C -21.3 °C 34726.8 hPa Calm     86 % 0 mm 0.0 W/m2 CLR
03:39 -20.2 °C -21.3 °C 34726.8 hPa Calm     86 % 0 mm 0.0 W/m2 CLR
03:44 -20.2 °C -21.3 °C 34726.8 hPa Calm     86 % 0 mm 0.0 W/m2 CLR
03:49 -20.2 °C -21.4 °C 34716.7 hPa Calm     85 % 0 mm 0.0 W/m2 CLR
03:54 -20.2 °C -21.3 °C 34716.7 hPa Calm     86 % 0 mm 0.0 W/m2 CLR
03:59 -20.2 °C -21.3 °C 34716.7 hPa Calm     86 % 0 mm 0.0 W/m2 CLR
04:04 -20.2 °C -21.3 °C 34716.7 hPa Calm     86 % 0 mm 0.0 W/m2 CLR
04:09 -20.2 °C -21.3 °C 34703.1 hPa Calm     86 % 0 mm 0.0 W/m2 CLR
04:14 -20.6 °C -21.7 °C 34703.1 hPa Calm     86 % 0 mm 0.0 W/m2 CLR
04:19 -20.6 °C -21.7 °C 34703.1 hPa Calm     86 % 0 mm 0.0 W/m2 CLR
04:24 -20.6 °C -21.7 °C 34703.1 hPa Calm     86 % 0 mm 0.0 W/m2 CLR
04:29 -20.6 °C -21.6 °C 34693 hPa Calm     87 % 0 mm 0.0 W/m2 CLR
04:34 -20.6 °C -21.6 °C 34693 hPa Calm     87 % 0 mm 0.0 W/m2 CLR
04:39 -20.6 °C -21.6 °C 34682.8 hPa Calm     87 % 0 mm 0.0 W/m2 CLR
04:44 -20.6 °C -21.6 °C 34682.8 hPa Calm     87 % 0 mm 0.0 W/m2 CLR
04:49 -20.6 °C -21.6 °C 34682.8 hPa Calm     87 % 0 mm 0.0 W/m2 CLR
04:54 -20.6 °C -21.7 °C 34682.8 hPa Calm     86 % 0 mm 0.0 W/m2 CLR
04:59 -20.6 °C -21.7 °C 34682.8 hPa Calm     86 % 0 mm 0.0 W/m2 CLR
05:04 -20.6 °C -21.6 °C 34682.8 hPa Calm     87 % 0 mm 0.0 W/m2 CLR
05:09 -20.6 °C -21.5 °C 34682.8 hPa Calm     88 % 0 mm 0.0 W/m2 CLR
05:14 -20.6 °C -21.5 °C 34669.3 hPa Calm     88 % 0 mm 0.0 W/m2 CLR
05:19 -20.6 °C -21.5 °C 34682.8 hPa Calm     88 % 0 mm 0.0 W/m2 CLR
05:24 -20.6 °C -21.6 °C 34682.8 hPa Calm     87 % 0 mm 0.0 W/m2 CLR
05:29 -20.6 °C -21.6 °C 34682.8 hPa Calm     87 % 0 mm 0.0 W/m2 CLR
05:34 -20.6 °C -21.6 °C 34682.8 hPa Calm     87 % 0 mm 0.0 W/m2 CLR
05:39 -20.2 °C -21.3 °C 34682.8 hPa Calm     87 % 0 mm 0.0 W/m2 CLR
05:44 -20.2 °C -21.2 °C 34682.8 hPa Calm     88 % 0 mm 0.0 W/m2 CLR
05:49 -20.2 °C -21.2 °C 34682.8 hPa Calm     88 % 0 mm 0.0 W/m2 CLR
05:54 -20.2 °C -21.2 °C 34682.8 hPa Calm     88 % 0 mm 0.0 W/m2 CLR
05:59 -20.2 °C -21.2 °C 34682.8 hPa Calm     88 % 0 mm 0.0 W/m2 CLR
06:04 -20.2 °C -21.2 °C 34682.8 hPa Calm     88 % 0 mm 0.0 W/m2 CLR
06:09 -20.2 °C -21.2 °C 34682.8 hPa Calm     88 % 0 mm 0.0 W/m2 CLR
06:14 -20.6 °C -21.5 °C 34682.8 hPa Calm     88 % 0 mm 0.0 W/m2 CLR
06:19 -20.6 °C -21.5 °C 34682.8 hPa Calm     88 % 0 mm 0.0 W/m2 CLR
06:24 -20.6 °C -21.5 °C 34682.8 hPa Calm     88 % 0 mm 0.0 W/m2 CLR
06:29 -20.6 °C -21.5 °C 34682.8 hPa Calm     88 % 0 mm 0.0 W/m2 CLR
06:34 -20.9 °C -21.8 °C 34682.8 hPa Calm     88 % 0 mm 0.0 W/m2 CLR
06:39 -20.9 °C -21.8 °C 34682.8 hPa Calm     88 % 0 mm 0.0 W/m2 CLR
06:44 -20.9 °C -21.8 °C 34682.8 hPa Calm     88 % 0 mm 0.0 W/m2 CLR
06:49 -20.9 °C -21.8 °C 34682.8 hPa Calm     88 % 0 mm 0.0 W/m2 CLR
06:54 -20.9 °C -21.8 °C 34682.8 hPa Calm     88 % 0 mm 0.0 W/m2 CLR
06:59 -20.9 °C -21.8 °C 34682.8 hPa Calm     88 % 0 mm 0.0 W/m2 CLR
07:04 -21.2 °C -22 °C 34669.3 hPa Calm     89 % 0 mm 0.0 W/m2 CLR
07:09 -21.2 °C -22.1 °C 34669.3 hPa Calm     88 % 0 mm 0.0 W/m2 CLR
07:14 -20.9 °C -21.8 °C 34669.3 hPa Calm     88 % 0 mm 0.0 W/m2 CLR
07:19 -20.9 °C -21.8 °C 34669.3 hPa Calm     88 % 0 mm 0.0 W/m2 CLR
07:24 -20.9 °C -21.8 °C 34669.3 hPa Calm     88 % 0 mm 0.0 W/m2 CLR
07:29 -20.9 °C -21.8 °C 34669.3 hPa Calm     88 % 0 mm 0.0 W/m2 CLR
07:34 -20.9 °C -21.7 °C 34669.3 hPa Calm     89 % 0 mm 0.0 W/m2 CLR
07:39 -20.9 °C -21.7 °C 34669.3 hPa Calm     89 % 0 mm 0.0 W/m2 CLR
07:44 -20.9 °C -21.7 °C 34669.3 hPa Calm     89 % 0 mm 0.0 W/m2 CLR
07:49 -20.9 °C -21.7 °C 34669.3 hPa Calm     89 % 0 mm 0.0 W/m2 CLR
07:54 -20.9 °C -21.8 °C 34669.3 hPa Calm     88 % 0 mm 0.0 W/m2 CLR
07:59 -20.9 °C -21.7 °C 34669.3 hPa Calm     89 % 0 mm 0.0 W/m2 CLR
08:04 -20.9 °C -21.8 °C 34682.8 hPa Calm     88 % 0 mm 5.0 W/m2 OVC
08:09 -20.9 °C -21.7 °C 34682.8 hPa Calm     89 % 0 mm 7.0 W/m2 OVC
08:14 -20.9 °C -21.7 °C 34682.8 hPa Calm     89 % 0 mm 9.0 W/m2 BKN
08:19 -20.9 °C -21.7 °C 34682.8 hPa Calm     89 % 0 mm 11.0 W/m2 BKN
08:24 -20.9 °C -21.8 °C 34682.8 hPa Calm     88 % 0 mm 12.0 W/m2 BKN
08:29 -21.2 °C -22.1 °C 34669.3 hPa Calm     88 % 0 mm 16.0 W/m2 BKN
08:34 -20.9 °C -21.7 °C 34682.8 hPa Calm     89 % 0 mm 21.0 W/m2 BKN
08:39 -20.9 °C -21.7 °C 34669.3 hPa Calm     89 % 0 mm 23.0 W/m2 BKN
08:44 -20.9 °C -21.8 °C 34669.3 hPa Calm     88 % 0 mm 44.0 W/m2 BKN
08:49 -20.9 °C -21.7 °C 34669.3 hPa Calm     89 % 0 mm 44.0 W/m2 BKN
08:54 -20.9 °C -21.8 °C 34669.3 hPa Calm     88 % 0 mm 65.0 W/m2 SCT
08:59 -20.9 °C -21.8 °C 34669.3 hPa Calm     88 % 0 mm 74.0 W/m2 FEW
09:04 -20.9 °C -21.9 °C 34682.8 hPa Calm     87 % 0 mm 76.0 W/m2 FEW
09:09 -20.6 °C -21.6 °C 34682.8 hPa Calm     87 % 0 mm 32.0 W/m2 FEW
09:14 -20.6 °C -21.7 °C 34682.8 hPa Calm     86 % 0 mm 25.0 W/m2 BKN
09:19 -20.6 °C -21.7 °C 34669.3 hPa Calm     85 % 0 mm 26.0 W/m2 BKN
09:24 -20.2 °C -21.4 °C 34682.8 hPa Calm     85 % 0 mm 102.0 W/m2 BKN
09:29 -20.2 °C -21.3 °C 34682.8 hPa Calm     86 % 0 mm 130.0 W/m2 SCT
09:34 -20.2 °C -21.3 °C 34682.8 hPa Calm     86 % 0 mm 118.0 W/m2 CLR
09:39 -19.9 °C -21.1 °C 34682.8 hPa Calm     86 % 0 mm 186.0 W/m2 CLR
09:45 -19.9 °C -21.1 °C 34669.3 hPa Calm     86 % 0 mm 135.0 W/m2 CLR
09:50 -19.6 °C -20.9 °C 34669.3 hPa Calm     84 % 0 mm 204.0 W/m2 CLR
09:55 -19.6 °C -21 °C 34669.3 hPa Calm     83 % 0 mm 169.0 W/m2 CLR
10:00 -19.3 °C -20.7 °C 34669.3 hPa Calm     83 % 0 mm 246.0 W/m2 CLR
10:05 -19 °C -20.5 °C 34669.3 hPa Calm     82 % 0 mm 257.0 W/m2 CLR
10:10 -19 °C -20.8 °C 34669.3 hPa Calm     79 % 0 mm 269.0 W/m2 CLR
10:15 -18.7 °C -20.6 °C 34669.3 hPa Calm     78 % 0 mm 279.0 W/m2 CLR
10:20 -18.7 °C -20.7 °C 34669.3 hPa Calm     77 % 0 mm 288.0 W/m2 CLR
10:25 -18.4 °C -20.6 °C 34669.3 hPa Calm     75 % 0 mm 301.0 W/m2 CLR
10:30 -18.1 °C -20.2 °C 34669.3 hPa Calm     75 % 0 mm 309.0 W/m2 CLR
10:35 -17.8 °C -20.1 °C 34669.3 hPa Calm     74 % 0 mm 320.0 W/m2 CLR
10:40 -17.4 °C -19.8 °C 34669.3 hPa Calm     73 % 0 mm 329.0 W/m2 CLR
10:45 -17.2 °C -19.7 °C 34669.3 hPa Calm     72 % 0 mm 339.0 W/m2 CLR
10:50 -16.8 °C -19.5 °C 34669.3 hPa Calm     71 % 0 mm 348.0 W/m2 CLR
10:55 -16.2 °C -19 °C 34659.1 hPa Calm     70 % 0 mm 355.0 W/m2 CLR
11:00 -15.9 °C -18.9 °C 34659.1 hPa Calm     68 % 0 mm 364.0 W/m2 CLR
11:05 -15.6 °C -18.7 °C 34659.1 hPa Calm     67 % 0 mm 373.0 W/m2 CLR
11:10 -15.3 °C -18.4 °C 34659.1 hPa Calm     67 % 0 mm 380.0 W/m2 CLR
11:15 -15.3 °C -18.7 °C 34659.1 hPa Calm     65 % 0 mm 387.0 W/m2 CLR
11:20 -15 °C -18.5 °C 34645.6 hPa Calm     64 % 0 mm 392.0 W/m2 CLR
11:25 -14.7 °C -18.4 °C 34645.6 hPa Calm     62 % 0 mm 397.0 W/m2 CLR
11:30 -14.7 °C -18.9 °C 34645.6 hPa NNW 5.1 km/h 5.1 km/h 58 % 0 mm 406.0 W/m2 CLR
11:35 -14.4 °C -19.2 °C 34645.6 hPa NNW 20.9 km/h 20.9 km/h 54 % 0 mm 411.0 W/m2 CLR
11:40 -14.1 °C -19.2 °C 34635.4 hPa NW 29.8 km/h 29.8 km/h 52 % 0 mm 415.0 W/m2 CLR
11:45 -13.4 °C -18.4 °C 34635.4 hPa NW 23.8 km/h 23.8 km/h 53 % 0 mm 420.0 W/m2 CLR
11:50 -12.8 °C -18.2 °C 34625.2 hPa NW 23.8 km/h 23.8 km/h 51 % 0 mm 425.0 W/m2 CLR
11:55 -12.8 °C -18 °C 34625.2 hPa North 23.3 km/h 23.3 km/h 52 % 0 mm 429.0 W/m2 CLR
12:00 -12.6 °C -17.9 °C 34625.2 hPa North 32.8 km/h 32.8 km/h 51 % 0 mm 434.0 W/m2 CLR
12:05 -12.6 °C -17.9 °C 34611.7 hPa NNW 26.9 km/h 26.9 km/h 51 % 0 mm 438.0 W/m2 CLR
12:10 -12.2 °C -17.7 °C 34611.7 hPa NNW 31.1 km/h 31.1 km/h 50 % 0 mm 441.0 W/m2 CLR
12:15 -12.2 °C -17.6 °C 34611.7 hPa NNW 26.9 km/h 26.9 km/h 51 % 0 mm 445.0 W/m2 CLR
12:20 -12.2 °C -17.6 °C 34601.5 hPa NNW 26.9 km/h 26.9 km/h 51 % 0 mm 446.0 W/m2 CLR
12:25 -12.2 °C -17.6 °C 34601.5 hPa NNW 26.9 km/h 26.9 km/h 51 % 0 mm 450.0 W/m2 CLR
12:30 -11.9 °C -17.4 °C 34601.5 hPa NW 35.7 km/h 35.7 km/h 50 % 0 mm 450.0 W/m2 CLR
12:35 -11.9 °C -17.6 °C 34601.5 hPa NW 29.8 km/h 29.8 km/h 49 % 0 mm 454.0 W/m2 CLR
12:40 -11.9 °C -17.6 °C 34591.4 hPa NNW 31.1 km/h 31.1 km/h 49 % 0 mm 454.0 W/m2 CLR
12:45 -11.9 °C -17.6 °C 34591.4 hPa NNW 29.8 km/h 29.8 km/h 49 % 0 mm 454.0 W/m2 CLR
12:55 -11.9 °C -17.6 °C 34577.8 hPa NW 20.9 km/h 20.9 km/h 49 % 0 mm 454.0 W/m2 CLR
13:00 -11.9 °C -17.6 °C 34577.8 hPa NNW 28.5 km/h 28.5 km/h 49 % 0 mm 454.0 W/m2 CLR
13:05 -11.9 °C -17.6 °C 34577.8 hPa NW 29.8 km/h 29.8 km/h 49 % 0 mm 452.0 W/m2 CLR
13:15 -11.6 °C -17.3 °C 34567.7 hPa NNE 23.8 km/h 23.8 km/h 49 % 0 mm 450.0 W/m2 CLR
13:25 -11.6 °C -17.5 °C 34554.1 hPa NW 18.2 km/h 18.2 km/h 48 % 0 mm 445.0 W/m2 CLR
13:30 -11.3 °C -17.4 °C 34554.1 hPa NW 17.9 km/h 17.9 km/h 47 % 0 mm 441.0 W/m2 CLR
13:50 -11.3 °C -17.2 °C 34533.8 hPa North 23.8 km/h 23.8 km/h 48 % 0 mm 424.0 W/m2 CLR
13:55 -11.3 °C -17.2 °C 34533.8 hPa North 26.9 km/h 26.9 km/h 48 % 0 mm 420.0 W/m2 CLR
14:00 -11.3 °C -17.4 °C 34533.8 hPa North 25.9 km/h 25.9 km/h 47 % 0 mm 399.0 W/m2 CLR
14:05 -11 °C -16.9 °C 34520.3 hPa NW 29.8 km/h 29.8 km/h 48 % 0 mm 410.0 W/m2 CLR
14:20 -11.3 °C -17.2 °C 34510.1 hPa NNE 23.8 km/h 23.8 km/h 48 % 0 mm 373.0 W/m2 CLR
14:30 -11.6 °C -17.5 °C 34510.1 hPa NNE 17.9 km/h 17.9 km/h 48 % 0 mm 376.0 W/m2 CLR
14:35 -11.3 °C -17.2 °C 34510.1 hPa Calm     48 % 0 mm 371.0 W/m2 CLR
14:40 -11.3 °C -17.2 °C 34496.6 hPa Calm     48 % 0 mm 350.0 W/m2 CLR
14:45 -11.3 °C -17.2 °C 34496.6 hPa NW 15 km/h   48 % 0 mm 341.0 W/m2 CLR
14:50 -11.3 °C -17.2 °C 34496.6 hPa NNE 20.8 km/h 20.8 km/h 48 % 0 mm 341.0 W/m2 CLR
14:55 -11 °C -17.1 °C 34496.6 hPa NNW 29.8 km/h 29.8 km/h 47 % 0 mm 330.0 W/m2 CLR
15:00 -11.3 °C -17.4 °C 34496.6 hPa NNW 26.9 km/h 26.9 km/h 47 % 0 mm 313.0 W/m2 CLR
15:05 -11 °C -17.1 °C 34496.6 hPa North 29.8 km/h 29.8 km/h 47 % 0 mm 308.0 W/m2 CLR
15:10 -11 °C -17.3 °C 34496.6 hPa NNW 25.9 km/h 25.9 km/h 46 % 0 mm 304.0 W/m2 CLR
15:15 -11 °C -17.3 °C 34486.4 hPa North 20.9 km/h 20.9 km/h 46 % 0 mm 279.0 W/m2 CLR
15:20 -11 °C -17.3 °C 34486.4 hPa NW 29.8 km/h 29.8 km/h 46 % 0 mm 278.0 W/m2 CLR
15:25 -11 °C -17.3 °C 34486.4 hPa NNW 15 km/h 15 km/h 46 % 0 mm 267.0 W/m2 CLR
15:30 -11 °C -17.1 °C 34476.3 hPa North 15 km/h 15 km/h 47 % 0 mm 258.0 W/m2 CLR
15:35 -11 °C -17.1 °C 34476.3 hPa NW 20.9 km/h 20.9 km/h 47 % 0 mm 255.0 W/m2 CLR
15:45 -11 °C -17.1 °C 34476.3 hPa NW 29.8 km/h 29.8 km/h 47 % 0 mm 223.0 W/m2 CLR
15:50 -11.3 °C -17.4 °C 34462.7 hPa NW 26.9 km/h 26.9 km/h 47 % 0 mm 211.0 W/m2 CLR
15:55 -11.3 °C -17.4 °C 34462.7 hPa NNW 11.9 km/h 11.9 km/h 47 % 0 mm 195.0 W/m2 CLR
16:00 -11.3 °C -17.6 °C 34462.7 hPa NW 29.8 km/h 29.8 km/h 46 % 0 mm 183.0 W/m2 CLR
16:05 -11.6 °C -17.8 °C 34462.7 hPa NW 23.8 km/h 23.8 km/h 46 % 0 mm 169.0 W/m2 CLR
16:11 -11.6 °C -17.7 °C 34462.7 hPa NW 23.8 km/h 23.8 km/h 47 % 0 mm 155.0 W/m2 CLR
16:21 -11.6 °C -17.8 °C 34462.7 hPa NW 23.8 km/h 23.8 km/h 46 % 0 mm 90.0 W/m2 CLR
16:26 -11.9 °C -18.1 °C 34462.7 hPa NNW 20.9 km/h 20.9 km/h 46 % 0 mm 39.0 W/m2 FEW
16:31 -11.9 °C -17.9 °C 34452.6 hPa NW 18.2 km/h 18.2 km/h 47 % 0 mm 33.0 W/m2 SCT
16:36 -11.9 °C -18.1 °C 34452.6 hPa NNW 12.9 km/h 12.9 km/h 46 % 0 mm 86.0 W/m2 CLR
16:37 -12.2 °C -18.4 °C 34452.6 hPa NW 9 km/h   46 % 0 mm 79.0 W/m2 FEW
16:42 -12.6 °C -18.7 °C 34452.6 hPa Calm     46 % 0 mm 49.0 W/m2 BKN
16:47 -12.6 °C -18.7 °C 34452.6 hPa Calm     46 % 0 mm 26.0 W/m2 BKN
16:52 -12.8 °C -18.8 °C 34452.6 hPa Calm     47 % 0 mm 18.0 W/m2 BKN
16:57 -13.2 °C -19.1 °C 34452.6 hPa Calm     47 % 0 mm 16.0 W/m2 BKN
17:02 -13.4 °C -19.2 °C 34442.4 hPa Calm     48 % 0 mm 12.0 W/m2 BKN
17:07 -13.8 °C -19.5 °C 34452.6 hPa Calm     48 % 0 mm 11.0 W/m2 BKN
17:17 -14.1 °C -19.3 °C 34442.4 hPa Calm     51 % 0 mm 7.0 W/m2 BKN
17:22 -14.4 °C -19.4 °C 34442.4 hPa Calm     52 % 0 mm 5.0 W/m2 BKN
17:27 -14.4 °C -19.3 °C 34442.4 hPa Calm     53 % 0 mm 5.0 W/m2 OVC
17:32 -14.4 °C -19.3 °C 34442.4 hPa Calm     53 % 0 mm 0.0 W/m2 OVC
17:42 -14.7 °C -19.8 °C 34428.8 hPa Calm     52 % 0 mm 0.0 W/m2 CLR
17:47 -15 °C -19.8 °C 34428.8 hPa Calm     54 % 0 mm 0.0 W/m2 CLR
17:57 -15.3 °C -19.6 °C 34442.4 hPa Calm     57 % 0 mm 0.0 W/m2 CLR
18:02 -15.3 °C -19.6 °C 34442.4 hPa Calm     57 % 0 mm 0.0 W/m2 CLR
18:18 -15.6 °C -19.6 °C 34428.8 hPa Calm     60 % 0 mm 0.0 W/m2 CLR
18:23 -15.6 °C -19.6 °C 34428.8 hPa Calm     60 % 0 mm 0.0 W/m2 CLR
18:33 -15.9 °C -19.6 °C 34442.4 hPa Calm     62 % 0 mm 0.0 W/m2 CLR
18:43 -16.2 °C -19.8 °C 34428.8 hPa Calm     63 % 0 mm 0.0 W/m2 CLR
18:48 -16.6 °C -19.9 °C 34428.8 hPa Calm     64 % 0 mm 0.0 W/m2 CLR
18:58 -16.8 °C -20.1 °C 34428.8 hPa Calm     65 % 0 mm 0.0 W/m2 CLR
19:03 -17.2 °C -20.4 °C 34442.4 hPa Calm     65 % 0 mm 0.0 W/m2 CLR
19:08 -17.2 °C -20.4 °C 34442.4 hPa Calm     65 % 0 mm 0.0 W/m2 CLR
19:18 -17.4 °C -20.6 °C 34442.4 hPa Calm     66 % 0 mm 0.0 W/m2 CLR
19:28 -17.4 °C -20.5 °C 34442.4 hPa Calm     67 % 0 mm 0.0 W/m2 CLR
19:38 -17.4 °C -20.4 °C 34442.4 hPa Calm     68 % 0 mm 0.0 W/m2 CLR
19:43 -17.8 °C -20.6 °C 34442.4 hPa Calm     69 % 0 mm 0.0 W/m2 CLR
19:48 -17.4 °C -20.3 °C 34428.8 hPa Calm     69 % 0 mm 0.0 W/m2 CLR
19:53 -17.4 °C -20.3 °C 34428.8 hPa Calm     69 % 0 mm 0.0 W/m2 CLR
19:54 -17.4 °C -20.3 °C 34428.8 hPa Calm     69 % 0 mm 0.0 W/m2 CLR
19:59 -17.8 °C -20.4 °C 34428.8 hPa Calm     70 % 0 mm 0.0 W/m2 CLR
20:04 -17.8 °C -20.3 °C 34428.8 hPa Calm     71 % 0 mm 0.0 W/m2 CLR
20:09 -17.8 °C -20.2 °C 34428.8 hPa Calm     72 % 0 mm 0.0 W/m2 CLR
20:14 -17.8 °C -20.2 °C 34428.8 hPa Calm     72 % 0 mm 0.0 W/m2 CLR
20:19 -17.8 °C -20.2 °C 34428.8 hPa Calm     72 % 0 mm 0.0 W/m2 CLR
20:24 -18.1 °C -20.6 °C 34428.8 hPa Calm     72 % 0 mm 0.0 W/m2 CLR
20:29 -18.1 °C -20.6 °C 34428.8 hPa Calm     72 % 0 mm 0.0 W/m2 CLR
20:34 -18.1 °C -20.4 °C 34428.8 hPa Calm     73 % 0 mm 0.0 W/m2 CLR
20:49 -18.4 °C -20.7 °C 34418.7 hPa Calm     74 % 0 mm 0.0 W/m2 CLR
20:59 -18.4 °C -20.6 °C 34418.7 hPa Calm     75 % 0 mm 0.0 W/m2 CLR
21:04 -18.4 °C -20.6 °C 34418.7 hPa Calm     75 % 0 mm 0.0 W/m2 CLR
21:09 -18.4 °C -20.6 °C 34405.1 hPa Calm     75 % 0 mm 0.0 W/m2 CLR
21:14 -18.4 °C -20.7 °C 34418.7 hPa Calm     74 % 0 mm 0.0 W/m2 CLR
21:29 -18.7 °C -20.8 °C 34405.1 hPa Calm     75 % 0 mm 0.0 W/m2 CLR
21:34 -18.7 °C -20.8 °C 34405.1 hPa Calm     75 % 0 mm 0.0 W/m2 CLR
21:39 -18.7 °C -20.7 °C 34405.1 hPa Calm     76 % 0 mm 0.0 W/m2 CLR
21:44 -18.7 °C -20.7 °C 34405.1 hPa Calm     76 % 0 mm 0.0 W/m2 CLR
21:49 -18.7 °C -20.7 °C 34395 hPa Calm     76 % 0 mm 0.0 W/m2 CLR
21:54 -18.4 °C -20.4 °C 34395 hPa Calm     76 % 0 mm 0.0 W/m2 CLR
21:59 -18.4 °C -20.6 °C 34395 hPa Calm     75 % 0 mm 0.0 W/m2 CLR
22:09 -18.4 °C -20.6 °C 34395 hPa Calm     75 % 0 mm 0.0 W/m2 CLR
22:29 -18.4 °C -20.4 °C 34395 hPa Calm     76 % 0 mm 0.0 W/m2 CLR
22:34 -18.4 °C -20.4 °C 34395 hPa Calm     76 % 0 mm 0.0 W/m2 CLR
22:39 -18.1 °C -20.1 °C 34395 hPa Calm     77 % 0 mm 0.0 W/m2 CLR
22:44 -18.1 °C -19.9 °C 34395 hPa Calm     78 % 0 mm 0.0 W/m2 CLR
22:49 -18.1 °C -20.1 °C 34395 hPa Calm     77 % 0 mm 0.0 W/m2 CLR
22:54 -18.1 °C -20.1 °C 34395 hPa Calm     77 % 0 mm 0.0 W/m2 CLR
23:04 -17.8 °C -19.8 °C 34384.8 hPa Calm     76 % 0 mm 0.0 W/m2 CLR
23:09 -17.8 °C -19.8 °C 34384.8 hPa Calm     76 % 0 mm 0.0 W/m2 CLR
23:14 -17.4 °C -19.6 °C 34384.8 hPa Calm     76 % 0 mm 0.0 W/m2 CLR
23:19 -17.8 °C -19.8 °C 34384.8 hPa Calm     77 % 0 mm 0.0 W/m2 CLR
23:24 -17.8 °C -19.8 °C 34384.8 hPa Calm     77 % 0 mm 0.0 W/m2 CLR
23:29 -17.8 °C -19.8 °C 34384.8 hPa Calm     76 % 0 mm 0.0 W/m2 CLR
23:34 -17.8 °C -19.8 °C 34384.8 hPa Calm     76 % 0 mm 0.0 W/m2 CLR
23:39 -17.8 °C -19.9 °C 34384.8 hPa Calm     75 % 0 mm 0.0 W/m2 CLR
23:44 -17.8 °C -19.9 °C 34371.3 hPa Calm     75 % 0 mm 0.0 W/m2 CLR
23:49 -17.8 °C -19.9 °C 34384.8 hPa Calm     75 % 0 mm 0.0 W/m2 CLR
23:54 -17.8 °C -19.9 °C 34371.3 hPa Calm     75 % 0 mm 0.0 W/m2 CLR
23:59 -17.8 °C -19.9 °C 34371.3 hPa Calm     75 % 0 mm 0.0 W/m2 CLR
Lo Temps de Massalio
Compliments of Weather Underground - 1 mb